createdAt,value
2022-08-25T00:01:06.689Z,100627.44
2022-08-25T00:03:38.563Z,100633.88
2022-08-25T00:06:05.794Z,100637.53
2022-08-25T00:08:31.948Z,100635.97
2022-08-25T00:11:03.088Z,100632.66
2022-08-25T00:13:29.828Z,100635.88
2022-08-25T00:15:56.034Z,100638.41
2022-08-25T00:18:22.254Z,100632.25
2022-08-25T00:20:49.044Z,100625.28
2022-08-25T00:23:15.560Z,100635.50
2022-08-25T00:25:41.891Z,100639.53
2022-08-25T00:28:08.725Z,100637.00
2022-08-25T00:30:35.040Z,100633.94
2022-08-25T00:33:01.201Z,100636.47
2022-08-25T00:35:27.383Z,100630.03
2022-08-25T00:37:53.571Z,100629.19
2022-08-25T00:40:20.059Z,100633.53
2022-08-25T00:42:46.262Z,100630.03
2022-08-25T00:45:12.442Z,100631.31
2022-08-25T00:47:38.617Z,100626.00
2022-08-25T00:50:04.827Z,100636.84
2022-08-25T00:52:30.980Z,100637.25
2022-08-25T00:54:57.178Z,100642.28
2022-08-25T00:57:34.017Z,100643.78
2022-08-25T01:00:01.175Z,100639.88
2022-08-25T01:02:27.371Z,100636.63
2022-08-25T01:04:53.573Z,100632.59
2022-08-25T01:07:19.744Z,100632.88
2022-08-25T01:09:45.884Z,100633.59
2022-08-25T01:12:12.184Z,100633.31
2022-08-25T01:14:38.350Z,100634.13
2022-08-25T01:19:39.605Z,100631.75
2022-08-25T01:22:05.791Z,100634.16
2022-08-25T01:27:07.058Z,100636.19
2022-08-25T01:29:33.253Z,100636.63
2022-08-25T01:31:59.414Z,100635.34
2022-08-25T01:34:25.572Z,100634.13
2022-08-25T01:36:51.735Z,100642.88
2022-08-25T01:39:17.907Z,100642.72
2022-08-25T01:41:44.091Z,100636.97
2022-08-25T01:44:15.865Z,100647.16
2022-08-25T01:46:42.846Z,100634.56
2022-08-25T01:49:08.984Z,100637.75
2022-08-25T01:51:35.151Z,100641.34
2022-08-25T01:54:01.302Z,100637.69
2022-08-25T01:56:27.456Z,100637.66
2022-08-25T01:58:53.628Z,100638.63
2022-08-25T02:01:19.834Z,100639.63
2022-08-25T02:03:46.501Z,100647.41
2022-08-25T02:06:14.262Z,100649.34
2022-08-25T02:08:40.731Z,100652.66
2022-08-25T02:11:07.039Z,100657.75
2022-08-25T02:13:33.186Z,100659.13
2022-08-25T02:15:59.339Z,100651.69
2022-08-25T02:18:25.526Z,100658.16
2022-08-25T02:20:51.680Z,100648.81
2022-08-25T02:23:18.019Z,100651.69
2022-08-25T02:25:44.184Z,100651.50
2022-08-25T02:28:10.384Z,100644.06
2022-08-25T02:30:36.583Z,100639.97
2022-08-25T02:33:02.805Z,100644.31
2022-08-25T02:35:28.975Z,100646.25
2022-08-25T02:37:55.146Z,100647.19
2022-08-25T02:40:21.405Z,100644.09
2022-08-25T02:42:47.652Z,100636.63
2022-08-25T02:45:13.807Z,100629.41
2022-08-25T02:47:39.994Z,100635.78
2022-08-25T02:50:06.182Z,100627.28
2022-08-25T02:52:32.327Z,100630.50
2022-08-25T02:54:58.487Z,100638.19
2022-08-25T02:57:24.672Z,100627.75
2022-08-25T02:59:50.857Z,100625.19
2022-08-25T03:02:17.024Z,100621.00
2022-08-25T03:04:43.232Z,100625.44
2022-08-25T03:07:09.413Z,100626.56
2022-08-25T03:09:38.717Z,100620.69
2022-08-25T03:12:04.885Z,100630.41
2022-08-25T03:14:31.041Z,100633.19
2022-08-25T03:16:57.285Z,100623.00
2022-08-25T03:19:23.545Z,100622.41
2022-08-25T03:21:49.696Z,100625.88
2022-08-25T03:24:15.867Z,100619.50
2022-08-25T03:26:42.744Z,100624.66
2022-08-25T03:29:08.895Z,100622.41
2022-08-25T03:31:35.101Z,100627.56
2022-08-25T03:34:01.320Z,100627.22
2022-08-25T03:36:27.617Z,100628.81
2022-08-25T03:38:53.773Z,100627.97
2022-08-25T03:41:19.932Z,100627.13
2022-08-25T03:43:48.726Z,100633.63
2022-08-25T03:46:15.214Z,100630.41
2022-08-25T03:48:41.391Z,100624.63
2022-08-25T03:51:07.587Z,100615.28
2022-08-25T03:53:33.728Z,100611.19
2022-08-25T03:55:59.924Z,100613.09
2022-08-25T03:58:26.063Z,100606.66
2022-08-25T04:00:52.484Z,100604.47
2022-08-25T04:03:18.680Z,100604.22
2022-08-25T04:05:44.911Z,100600.72
2022-08-25T04:08:11.107Z,100612.66
2022-08-25T04:10:37.265Z,100609.41
2022-08-25T04:13:04.990Z,100617.47
2022-08-25T04:15:31.157Z,100623.09
2022-08-25T04:17:57.339Z,100627.91
2022-08-25T04:20:23.531Z,100626.00
2022-08-25T04:22:49.698Z,100620.47
2022-08-25T04:25:15.895Z,100632.38
2022-08-25T04:27:42.063Z,100620.47
2022-08-25T04:30:08.230Z,100626.44
2022-08-25T04:32:34.426Z,100623.72
2022-08-25T04:35:00.604Z,100633.56
2022-08-25T04:37:26.783Z,100634.03
2022-08-25T04:39:52.991Z,100645.09
2022-08-25T04:42:19.214Z,100641.59
2022-08-25T04:44:45.400Z,100641.63
2022-08-25T04:47:11.568Z,100639.47
2022-08-25T04:49:37.773Z,100638.63
2022-08-25T04:52:04.245Z,100633.22
2022-08-25T04:54:32.537Z,100626.59
2022-08-25T04:57:03.584Z,100633.31
2022-08-25T04:59:30.631Z,100626.34
2022-08-25T05:01:56.963Z,100634.75
2022-08-25T05:04:28.571Z,100627.56
2022-08-25T05:06:55.196Z,100633.78
2022-08-25T05:09:21.738Z,100640.66
2022-08-25T05:11:48.030Z,100629.22
2022-08-25T05:14:14.782Z,100633.44
2022-08-25T05:16:41.971Z,100627.06
2022-08-25T05:19:08.215Z,100632.72
2022-08-25T05:21:34.421Z,100630.94
2022-08-25T05:24:00.580Z,100632.00
2022-08-25T05:26:26.761Z,100622.53
2022-08-25T05:28:52.942Z,100620.13
2022-08-25T05:31:19.156Z,100623.25
2022-08-25T05:33:45.411Z,100618.56
2022-08-25T05:36:11.583Z,100619.28
2022-08-25T05:38:37.742Z,100625.53
2022-08-25T05:41:03.952Z,100622.25
2022-08-25T05:43:30.094Z,100619.75
2022-08-25T05:45:56.283Z,100626.97
2022-08-25T05:48:22.528Z,100621.16
2022-08-25T05:50:48.725Z,100625.78
2022-08-25T05:53:14.890Z,100631.00
2022-08-25T05:55:41.087Z,100626.88
2022-08-25T05:58:07.543Z,100629.72
2022-08-25T06:00:36.613Z,100624.78
2022-08-25T06:03:02.847Z,100618.31
2022-08-25T06:05:29.036Z,100613.78
2022-08-25T06:07:55.212Z,100614.00
2022-08-25T06:10:21.400Z,100609.06
2022-08-25T06:12:47.559Z,100609.75
2022-08-25T06:15:13.757Z,100614.00
2022-08-25T06:17:39.931Z,100617.81
2022-08-25T06:20:06.131Z,100616.91
2022-08-25T06:22:33.257Z,100619.97
2022-08-25T06:24:59.433Z,100617.31
2022-08-25T06:27:25.594Z,100614.09
2022-08-25T06:29:53.415Z,100618.44
2022-08-25T06:32:22.246Z,100625.97
2022-08-25T06:34:50.766Z,100619.59
2022-08-25T06:37:25.311Z,100619.63
2022-08-25T06:42:17.874Z,100609.72
2022-08-25T06:44:44.086Z,100595.94
2022-08-25T06:47:10.369Z,100596.31
2022-08-25T06:49:36.576Z,100602.03
2022-08-25T06:52:02.786Z,100600.78
2022-08-25T06:54:28.957Z,100602.50
2022-08-25T06:56:55.112Z,100597.53
2022-08-25T06:59:21.380Z,100590.88
2022-08-25T07:01:49.727Z,100593.88
2022-08-25T07:04:16.481Z,100593.72
2022-08-25T07:06:42.721Z,100592.41
2022-08-25T07:09:08.883Z,100589.75
2022-08-25T07:11:35.054Z,100580.72
2022-08-25T07:14:01.234Z,100580.84
2022-08-25T07:16:29.768Z,100576.16
2022-08-25T07:18:57.190Z,100575.00
2022-08-25T07:21:25.750Z,100580.47
2022-08-25T07:23:55.176Z,100587.91
2022-08-25T07:26:41.389Z,100577.53
2022-08-25T07:29:07.496Z,100576.00
2022-08-25T07:31:33.910Z,100572.75
2022-08-25T07:34:00.170Z,100573.84
2022-08-25T07:36:26.330Z,100565.88
2022-08-25T07:38:52.522Z,100565.47
2022-08-25T07:41:18.701Z,100573.25
2022-08-25T07:43:44.909Z,100571.97
2022-08-25T07:46:13.033Z,100574.19
2022-08-25T07:48:39.231Z,100573.25
2022-08-25T07:51:05.621Z,100570.47
2022-08-25T07:53:33.745Z,100571.13
2022-08-25T07:55:59.993Z,100567.78
2022-08-25T07:58:26.258Z,100567.97
2022-08-25T08:00:52.412Z,100565.97
2022-08-25T08:03:42.224Z,100575.84
2022-08-25T08:06:05.614Z,100567.84
2022-08-25T08:08:31.776Z,100558.72
2022-08-25T08:11:04.660Z,100562.59
2022-08-25T08:13:31.441Z,100570.66
2022-08-25T08:15:57.645Z,100575.88
2022-08-25T08:18:23.874Z,100571.16
2022-08-25T08:20:51.163Z,100570.34
2022-08-25T08:23:17.516Z,100569.69
2022-08-25T08:25:43.725Z,100571.81
2022-08-25T08:28:10.947Z,100570.72
2022-08-25T08:30:37.251Z,100579.81
2022-08-25T08:33:10.109Z,100586.38
2022-08-25T08:35:38.259Z,100576.97
2022-08-25T08:38:10.306Z,100574.19
2022-08-25T08:40:41.294Z,100577.47
2022-08-25T08:43:07.644Z,100574.44
2022-08-25T08:45:44.475Z,100569.47
2022-08-25T08:48:10.666Z,100570.13
2022-08-25T08:50:37.015Z,100564.47
2022-08-25T08:53:04.064Z,100562.22
2022-08-25T08:55:31.418Z,100558.13
2022-08-25T08:57:57.639Z,100530.41
2022-08-25T09:00:24.768Z,100557.13
2022-08-25T09:02:51.926Z,100559.22
2022-08-25T09:05:18.432Z,100556.44
2022-08-25T09:07:44.861Z,100556.16
2022-08-25T09:10:13.501Z,100556.84
2022-08-25T09:12:39.897Z,100547.53
2022-08-25T09:15:12.730Z,100556.91
2022-08-25T09:17:39.988Z,100557.28
2022-08-25T09:20:06.195Z,100552.72
2022-08-25T09:22:46.804Z,100544.75
2022-08-25T09:25:18.760Z,100543.38
2022-08-25T09:27:48.517Z,100537.03
2022-08-25T09:30:14.787Z,100540.69
2022-08-25T09:32:41.049Z,100528.13
2022-08-25T09:35:14.969Z,100534.66
2022-08-25T09:37:41.161Z,100532.56
2022-08-25T09:40:08.089Z,100524.00
2022-08-25T09:42:34.297Z,100527.16
2022-08-25T09:45:00.537Z,100522.56
2022-08-25T09:47:26.685Z,100513.66
2022-08-25T09:49:52.900Z,100511.53
2022-08-25T09:52:19.139Z,100509.97
2022-08-25T09:54:47.748Z,100507.72
2022-08-25T09:57:14.046Z,100505.88
2022-08-25T09:59:57.337Z,100504.03
2022-08-25T10:02:24.073Z,100498.66
2022-08-25T10:04:50.293Z,100483.13
2022-08-25T10:07:16.856Z,100490.16
2022-08-25T10:09:43.042Z,100491.31
2022-08-25T10:12:09.188Z,100482.28
2022-08-25T10:14:37.365Z,100477.56
2022-08-25T10:17:03.858Z,100471.06
2022-08-25T10:19:30.347Z,100475.69
2022-08-25T10:21:56.925Z,100469.50
2022-08-25T10:24:23.133Z,100466.50
2022-08-25T10:26:49.822Z,100466.81
2022-08-25T10:29:15.978Z,100470.25
2022-08-25T10:31:42.154Z,100478.31
2022-08-25T10:34:08.310Z,100462.56
2022-08-25T10:36:34.580Z,100460.44
2022-08-25T10:39:01.759Z,100461.88
2022-08-25T10:41:31.275Z,100458.28
2022-08-25T10:43:58.577Z,100456.09
2022-08-25T10:46:25.166Z,100453.34
2022-08-25T10:48:51.398Z,100444.31
2022-08-25T10:51:21.484Z,100452.22
2022-08-25T10:53:51.108Z,100440.28
2022-08-25T10:56:17.688Z,100431.97
2022-08-25T10:58:43.869Z,100442.66
2022-08-25T11:01:10.122Z,100436.38
2022-08-25T11:03:36.378Z,100430.38
2022-08-25T11:06:04.908Z,100431.56
2022-08-25T11:08:31.101Z,100428.91
2022-08-25T11:10:57.259Z,100422.06
2022-08-25T11:13:23.447Z,100417.03
2022-08-25T11:16:13.250Z,100416.31
2022-08-25T11:18:36.253Z,100414.25
2022-08-25T11:21:02.449Z,100404.28
2022-08-25T11:23:28.625Z,100402.28
2022-08-25T11:25:57.547Z,100402.91
2022-08-25T11:28:23.706Z,100401.53
2022-08-25T11:30:50.623Z,100402.47
2022-08-25T11:33:16.868Z,100405.03
2022-08-25T11:35:45.755Z,100401.47
2022-08-25T11:38:11.935Z,100389.03
2022-08-25T11:40:38.257Z,100387.16
2022-08-25T11:43:04.574Z,100395.44
2022-08-25T11:45:34.305Z,100393.25
2022-08-25T11:48:00.495Z,100388.59
2022-08-25T11:50:30.232Z,100384.28
2022-08-25T11:52:56.924Z,100382.34
2022-08-25T11:55:24.097Z,100385.28
2022-08-25T11:57:53.283Z,100385.25
2022-08-25T12:00:24.137Z,100386.22
2022-08-25T12:02:50.445Z,100372.00
2022-08-25T12:05:16.757Z,100373.59
2022-08-25T12:07:43.124Z,100373.84
2022-08-25T12:10:09.311Z,100374.13
2022-08-25T12:12:35.503Z,100369.84
2022-08-25T12:15:01.669Z,100367.84
2022-08-25T12:17:30.283Z,100357.66
2022-08-25T12:19:56.486Z,100369.00
2022-08-25T12:22:22.664Z,100367.81
2022-08-25T12:24:49.120Z,100364.63
2022-08-25T12:27:15.450Z,100358.50
2022-08-25T12:29:41.672Z,100348.16
2022-08-25T12:32:09.341Z,100350.16
2022-08-25T12:34:35.635Z,100347.13
2022-08-25T12:37:02.347Z,100347.75
2022-08-25T12:39:32.723Z,100345.66
2022-08-25T12:41:58.952Z,100331.50
2022-08-25T12:44:27.503Z,100336.53
2022-08-25T12:46:53.736Z,100340.91
2022-08-25T12:49:19.912Z,100345.41
2022-08-25T12:51:48.679Z,100338.81
2022-08-25T12:54:16.029Z,100334.28
2022-08-25T12:56:47.679Z,100331.16
2022-08-25T12:59:14.073Z,100327.31
2022-08-25T13:01:40.347Z,100327.84
2022-08-25T13:04:06.897Z,100318.63
2022-08-25T13:06:35.598Z,100321.69
2022-08-25T13:09:02.182Z,100315.53
2022-08-25T13:11:34.550Z,100316.56
2022-08-25T13:14:00.715Z,100322.44
2022-08-25T13:16:29.707Z,100309.88
2022-08-25T13:18:56.133Z,100309.56
2022-08-25T13:21:22.289Z,100305.38
2022-08-25T13:23:48.590Z,100312.09
2022-08-25T13:26:15.154Z,100304.78
2022-08-25T13:28:41.959Z,100298.69
2022-08-25T13:31:08.308Z,100290.34
2022-08-25T13:33:35.202Z,100285.28
2022-08-25T13:38:33.257Z,100292.13
2022-08-25T13:41:01.747Z,100291.78
2022-08-25T13:43:28.577Z,100283.47
2022-08-25T13:45:55.170Z,100284.50
2022-08-25T13:48:23.275Z,100284.06
2022-08-25T13:50:52.889Z,100276.53
2022-08-25T13:53:20.186Z,100273.41
2022-08-25T13:55:51.405Z,100265.16
2022-08-25T13:58:24.291Z,100262.03
2022-08-25T14:00:50.726Z,100264.63
2022-08-25T14:03:20.092Z,100256.75
2022-08-25T14:05:56.206Z,100253.50
2022-08-25T14:08:25.922Z,100252.25
2022-08-25T14:10:54.485Z,100254.16
2022-08-25T14:13:20.633Z,100251.00
2022-08-25T14:15:46.846Z,100244.50
2022-08-25T14:18:13.829Z,100245.34
2022-08-25T14:20:41.684Z,100240.94
2022-08-25T14:23:09.983Z,100233.56
2022-08-25T14:25:36.566Z,100240.94
2022-08-25T14:28:07.466Z,100229.09
2022-08-25T14:30:46.216Z,100236.75
2022-08-25T14:33:12.715Z,100236.13
2022-08-25T14:35:38.896Z,100239.78
2022-08-25T14:38:05.320Z,100236.41
2022-08-25T14:40:34.325Z,100236.19
2022-08-25T14:43:00.761Z,100233.56
2022-08-25T14:45:28.437Z,100212.63
2022-08-25T14:47:56.470Z,100224.25
2022-08-25T14:50:25.297Z,100223.41
2022-08-25T14:52:53.813Z,100218.13
2022-08-25T14:55:31.620Z,100205.59
2022-08-25T14:57:58.617Z,100211.00
2022-08-25T15:00:25.223Z,100218.97
2022-08-25T15:02:52.017Z,100212.16
2022-08-25T15:05:19.313Z,100204.59
2022-08-25T15:07:45.860Z,100205.13
2022-08-25T15:10:13.536Z,100206.19
2022-08-25T15:12:47.406Z,100205.69
2022-08-25T15:15:14.148Z,100198.28
2022-08-25T15:17:40.338Z,100192.47
2022-08-25T15:20:11.143Z,100188.50
2022-08-25T15:22:37.406Z,100184.63
2022-08-25T15:25:04.267Z,100185.19
2022-08-25T15:27:31.020Z,100190.97
2022-08-25T15:29:57.503Z,100176.09
2022-08-25T15:32:23.794Z,100177.88
2022-08-25T15:34:50.589Z,100168.81
2022-08-25T15:37:16.762Z,100160.72
2022-08-25T15:39:42.917Z,100163.88
2022-08-25T15:42:10.752Z,100161.50
2022-08-25T15:44:37.897Z,100160.63
2022-08-25T15:47:05.411Z,100158.25
2022-08-25T15:49:31.788Z,100154.84
2022-08-25T15:51:59.850Z,100164.06
2022-08-25T15:54:26.771Z,100159.84
2022-08-25T15:56:53.185Z,100168.94
2022-08-25T15:59:21.650Z,100168.59
2022-08-25T16:01:48.079Z,100164.66
2022-08-25T16:04:14.286Z,100170.72
2022-08-25T16:06:40.473Z,100174.69
2022-08-25T16:09:06.691Z,100165.47
2022-08-25T16:11:34.321Z,100164.84
2022-08-25T16:14:01.351Z,100161.00
2022-08-25T16:16:28.093Z,100160.94
2022-08-25T16:18:54.319Z,100155.19
2022-08-25T16:21:20.717Z,100162.56
2022-08-25T16:23:46.889Z,100155.56
2022-08-25T16:26:14.952Z,100158.66
2022-08-25T16:28:41.109Z,100154.31
2022-08-25T16:31:10.174Z,100148.28
2022-08-25T16:33:37.127Z,100149.84
2022-08-25T16:36:03.303Z,100139.09
2022-08-25T16:38:29.489Z,100144.28
2022-08-25T16:40:55.655Z,100144.53
2022-08-25T16:43:21.826Z,100137.09
2022-08-25T16:45:48.012Z,100146.25
2022-08-25T16:48:14.182Z,100138.19
2022-08-25T16:50:40.344Z,100141.94
2022-08-25T16:53:07.976Z,100134.06
2022-08-25T16:55:39.484Z,100144.63
2022-08-25T16:58:06.442Z,100143.59
2022-08-25T17:00:32.853Z,100147.31
2022-08-25T17:02:59.325Z,100139.25
2022-08-25T17:05:25.517Z,100138.19
2022-08-25T17:07:53.522Z,100138.41
2022-08-25T17:10:20.315Z,100134.47
2022-08-25T17:12:49.633Z,100133.84
2022-08-25T17:15:15.788Z,100133.44
2022-08-25T17:17:47.647Z,100132.13
2022-08-25T17:20:13.845Z,100130.91
2022-08-25T17:22:43.367Z,100138.31
2022-08-25T17:25:09.549Z,100141.56
2022-08-25T17:27:35.705Z,100144.44
2022-08-25T17:30:01.873Z,100145.22
2022-08-25T17:32:28.699Z,100145.00
2022-08-25T17:34:56.528Z,100153.81
2022-08-25T17:37:22.670Z,100149.88
2022-08-25T17:39:48.861Z,100142.81
2022-08-25T17:42:16.777Z,100148.34
2022-08-25T17:44:44.391Z,100151.44
2022-08-25T17:47:10.947Z,100150.63
2022-08-25T17:49:37.150Z,100147.59
2022-08-25T17:52:03.329Z,100150.50
2022-08-25T17:54:29.509Z,100145.94
2022-08-25T17:56:55.684Z,100159.78
2022-08-25T17:59:21.876Z,100156.63
2022-08-25T18:01:48.200Z,100149.50
2022-08-25T18:04:17.491Z,100146.69
2022-08-25T18:06:44.260Z,100152.81
2022-08-25T18:09:11.240Z,100149.84
2022-08-25T18:11:37.402Z,100152.63
2022-08-25T18:14:03.599Z,100152.84
2022-08-25T18:16:29.795Z,100150.47
2022-08-25T18:18:55.960Z,100155.91
2022-08-25T18:21:23.355Z,100156.22
2022-08-25T18:23:49.551Z,100164.78
2022-08-25T18:26:15.694Z,100160.19
2022-08-25T18:28:43.849Z,100155.63
2022-08-25T18:31:10.231Z,100162.69
2022-08-25T18:33:36.421Z,100158.53
2022-08-25T18:36:02.583Z,100161.16
2022-08-25T18:38:28.771Z,100166.34
2022-08-25T18:40:54.934Z,100174.81
2022-08-25T18:43:21.142Z,100164.47
2022-08-25T18:45:47.352Z,100170.72
2022-08-25T18:48:13.511Z,100165.06
2022-08-25T18:50:40.495Z,100170.53
2022-08-25T18:53:07.092Z,100172.47
2022-08-25T18:55:33.593Z,100170.75
2022-08-25T18:57:59.756Z,100172.84
2022-08-25T19:00:25.915Z,100175.56
2022-08-25T19:02:53.133Z,100179.44
2022-08-25T19:05:19.947Z,100180.47
2022-08-25T19:07:46.139Z,100183.00
2022-08-25T19:10:17.871Z,100180.09
2022-08-25T19:12:45.439Z,100179.47
2022-08-25T19:15:11.925Z,100181.00
2022-08-25T19:17:38.323Z,100182.16
2022-08-25T19:20:04.496Z,100175.66
2022-08-25T19:22:41.774Z,100180.69
2022-08-25T19:25:08.459Z,100177.03
2022-08-25T19:27:35.504Z,100183.75
2022-08-25T19:30:01.683Z,100185.59
2022-08-25T19:32:27.842Z,100175.09
2022-08-25T19:34:54.010Z,100180.63
2022-08-25T19:37:20.471Z,100179.28
2022-08-25T19:39:53.001Z,100177.97
2022-08-25T19:42:36.985Z,100175.31
2022-08-25T19:45:04.476Z,100174.97
2022-08-25T19:47:30.690Z,100177.28
2022-08-25T19:49:57.943Z,100186.28
2022-08-25T19:52:24.101Z,100185.97
2022-08-25T19:54:52.918Z,100191.31
2022-08-25T19:57:28.570Z,100191.94
2022-08-25T20:00:05.236Z,100191.44
2022-08-25T20:02:32.244Z,100201.25
2022-08-25T20:04:58.484Z,100197.94
2022-08-25T20:07:26.062Z,100205.25
2022-08-25T20:09:52.243Z,100199.22
2022-08-25T20:12:18.415Z,100203.84
2022-08-25T20:14:44.581Z,100201.28
2022-08-25T20:17:13.109Z,100204.94
2022-08-25T20:19:49.527Z,100201.41
2022-08-25T20:22:17.397Z,100206.22
2022-08-25T20:24:44.407Z,100203.00
2022-08-25T20:27:10.598Z,100200.16
2022-08-25T20:29:38.737Z,100201.81
2022-08-25T20:32:04.914Z,100200.63
2022-08-25T20:34:31.303Z,100203.91
2022-08-25T20:36:58.861Z,100202.72
2022-08-25T20:39:25.058Z,100200.50
2022-08-25T20:41:51.485Z,100207.94
2022-08-25T20:44:17.637Z,100203.75
2022-08-25T20:46:43.819Z,100200.03
2022-08-25T20:49:09.968Z,100209.50
2022-08-25T20:51:38.655Z,100202.00
2022-08-25T20:54:04.820Z,100204.84
2022-08-25T20:56:31.511Z,100196.47
2022-08-25T20:58:57.659Z,100205.91
2022-08-25T21:01:23.852Z,100204.19
2022-08-25T21:03:50.079Z,100196.53
2022-08-25T21:06:17.136Z,100196.69
2022-08-25T21:08:46.589Z,100209.47
2022-08-25T21:11:13.161Z,100211.06
2022-08-25T21:13:39.306Z,100201.03
2022-08-25T21:16:09.080Z,100200.66
2022-08-25T21:18:35.495Z,100210.22
2022-08-25T21:21:01.667Z,100211.78
2022-08-25T21:23:31.241Z,100212.19
2022-08-25T21:25:57.401Z,100216.50
2022-08-25T21:28:24.022Z,100211.66
2022-08-25T21:30:50.236Z,100226.22
2022-08-25T21:33:16.440Z,100221.78
2022-08-25T21:35:43.006Z,100224.06
2022-08-25T21:38:09.187Z,100226.31
2022-08-25T21:40:35.351Z,100224.97
2022-08-25T21:43:01.692Z,100235.91
2022-08-25T21:45:27.893Z,100232.19
2022-08-25T21:48:02.181Z,100230.69
2022-08-25T21:50:28.345Z,100235.44
2022-08-25T21:52:54.949Z,100233.25
2022-08-25T21:55:21.120Z,100228.50
2022-08-25T21:57:48.194Z,100231.31
2022-08-25T22:00:14.360Z,100234.16
2022-08-25T22:02:43.917Z,100237.09
2022-08-25T22:05:10.390Z,100233.19
2022-08-25T22:07:41.685Z,100228.34
2022-08-25T22:10:08.337Z,100231.41
2022-08-25T22:12:43.157Z,100225.44
2022-08-25T22:15:09.297Z,100226.81
2022-08-25T22:17:38.655Z,100228.78
2022-08-25T22:20:05.735Z,100223.47
2022-08-25T22:22:31.893Z,100223.75
2022-08-25T22:24:58.065Z,100225.88
2022-08-25T22:27:25.305Z,100224.59
2022-08-25T22:29:51.478Z,100226.56
2022-08-25T22:32:17.650Z,100225.44
2022-08-25T22:34:43.856Z,100227.00
2022-08-25T22:37:10.070Z,100228.13
2022-08-25T22:39:36.239Z,100221.41
2022-08-25T22:42:06.352Z,100224.06
2022-08-25T22:44:32.514Z,100227.03
2022-08-25T22:46:59.180Z,100229.53
2022-08-25T22:49:25.349Z,100226.19
2022-08-25T22:51:51.503Z,100223.66
2022-08-25T22:54:21.350Z,100225.63
2022-08-25T22:56:47.528Z,100231.34
2022-08-25T22:59:13.706Z,100231.91
2022-08-25T23:01:39.888Z,100222.56
2022-08-25T23:04:06.349Z,100221.13
2022-08-25T23:06:32.554Z,100217.13
2022-08-25T23:08:58.741Z,100215.72
2022-08-25T23:11:24.902Z,100219.50
2022-08-25T23:13:51.093Z,100225.88
2022-08-25T23:16:17.283Z,100219.34
2022-08-25T23:18:46.186Z,100221.72
2022-08-25T23:21:12.457Z,100228.09
2022-08-25T23:23:44.546Z,100219.06
2022-08-25T23:26:10.739Z,100228.25
2022-08-25T23:28:36.948Z,100219.59
2022-08-25T23:31:03.166Z,100205.34
2022-08-25T23:33:29.611Z,100226.09
2022-08-25T23:35:56.047Z,100221.38
2022-08-25T23:38:23.879Z,100218.84
2022-08-25T23:40:50.069Z,100223.06
2022-08-25T23:43:16.241Z,100227.50
2022-08-25T23:45:42.481Z,100214.97
2022-08-25T23:48:08.656Z,100223.88
2022-08-25T23:50:34.861Z,100218.00
2022-08-25T23:53:01.141Z,100223.59
2022-08-25T23:55:33.054Z,100220.38
2022-08-25T23:58:00.216Z,100220.50
